ADDS METAR Data INFO
IDs: Format: Raw Decoded Include TAF

Data at: 0213 UTC 14 Dec 2017

KOXV 140155Z AUTO 32022G29KT 10SM OVC036 02/M07 A2983 RMK AO2
KOXV 140135Z AUTO 33024G33KT 10SM OVC036 02/M07 A2983 RMK AO2
KOXV 140115Z AUTO 33027G35KT 10SM OVC035 02/M07 A2982 RMK AO2
KOXV 140055Z AUTO 32022G30KT 10SM OVC033 02/M06 A2981 RMK AO2
KOXV 140035Z AUTO 33025G33KT 10SM OVC034 02/M06 A2980 RMK AO2
KOXV 140015Z AUTO 33022G31KT 10SM OVC033 02/M06 A2979 RMK AO2
KOXV 132355Z AUTO 32023G36KT 10SM OVC031 03/M05 A2977 RMK AO2
KOXV 132335Z AUTO 32031G37KT 10SM OVC031 03/M05 A2976 RMK AO2
KOXV 132315Z AUTO 32026G37KT 10SM OVC030 03/M04 A2975 RMK AO2
KOXV 132255Z AUTO 31026G37KT 10SM OVC029 03/M04 A2974 RMK AO2
KOXV 132235Z AUTO 32023G40KT 10SM OVC029 03/M03 A2972 RMK AO2
KOXV 132215Z AUTO 33025G33KT 10SM OVC027 03/M03 A2971 RMK AO2
KOXV 132155Z AUTO 32026G35KT 10SM OVC025 03/M02 A2970 RMK AO2
KOXV 132135Z AUTO 32021G36KT 10SM OVC021 03/M02 A2969 RMK AO2
KOXV 132115Z AUTO 32016G29KT 10SM OVC022 03/M02 A2969 RMK AO2
KOXV 132055Z AUTO 32024G32KT 10SM OVC023 04/M02 A2967 RMK AO2
KOXV 132035Z AUTO 32021G32KT 10SM OVC023 04/M01 A2965 RMK AO2
KOXV 132015Z AUTO 32025G36KT 10SM OVC024 04/M02 A2964 RMK AO2
KOXV 131955Z AUTO 31024KT 10SM OVC023 04/M01 A2963 RMK AO2
KOXV 131935Z AUTO 31023G30KT 10SM OVC022 04/M01 A2962 RMK AO2
KOXV 131915Z AUTO 32023G29KT 10SM OVC022 05/00 A2961 RMK AO2
KOXV 131855Z AUTO 33024G34KT 10SM BKN023 OVC028 05/M00 A2959 RMK AO2
KOXV 131835Z AUTO 31019G29KT 10SM OVC022 05/01 A2958 RMK AO2
KOXV 131815Z AUTO 32022G33KT 10SM OVC022 05/01 A2958 RMK AO2
KOXV 131755Z AUTO 31027G37KT 10SM OVC019 05/01 A2958 RMK AO2
KOXV 131735Z AUTO 31023G42KT 10SM OVC018 05/01 A2957 RMK AO2
KOXV 131715Z AUTO 30021G31KT 10SM BKN018 OVC030 05/02 A2957 RMK AO2
KOXV 131655Z AUTO 31023G37KT 7SM -RA BKN020 BKN032 BKN037 05/02 A2956 RMK AO2
KOXV 131635Z AUTO 31027G39KT 4SM -RA BKN022 BKN029 BKN038 05/02 A2955 RMK AO2
KOXV 131615Z AUTO 30027G37KT 5SM -RA FEW025 FEW034 BKN040 06/02 A2953 RMK AO2
KOXV 131555Z AUTO 31023G34KT 10SM OVC040 09/M01 A2951 RMK AO2
KOXV 131535Z AUTO 30024G33KT 10SM BKN040 OVC050 09/M01 A2949 RMK AO2
KOXV 131515Z AUTO 30027G34KT 10SM SCT039 BKN050 BKN065 09/M01 A2948 RMK AO2
KOXV 131455Z AUTO 29016G22KT 10SM SCT050 SCT070 BKN080 07/M03 A2948 RMK AO2
KOXV 131435Z AUTO 28014G20KT 10SM SCT070 BKN110 06/M04 A2948 RMK AO2
KOXV 131415Z AUTO 27014G19KT 10SM OVC100 05/M05 A2948 RMK AO2
KOXV 131355Z AUTO 26011KT 10SM BKN095 OVC120 04/M05 A2949 RMK AO2
KOXV 131335Z AUTO 25011KT 10SM SCT095 BKN180 BKN200 04/M05 A2948 RMK AO2
KOXV 131315Z AUTO 24013G19KT 10SM CLR 03/M05 A2948 RMK AO2
KOXV 131255Z AUTO 24015KT 10SM FEW200 BKN220 BKN250 03/M05 A2947 RMK AO2
KOXV 131235Z AUTO 26013G19KT 10SM BKN210 BKN230 BKN260 03/M05 A2950 RMK AO2
KOXV 131215Z AUTO 25013KT 10SM BKN210 BKN230 BKN270 02/M05 A2950 RMK AO2
KOXV 131155Z AUTO 24009G17KT 10SM BKN220 BKN270 02/M05 A2951 RMK AO2
KOXV 131135Z AUTO 24013G20KT FEW200 SCT220 SCT240 02/M05 A2951 RMK AO2
KOXV 131115Z AUTO 23013KT 10SM SCT200 SCT230 02/M05 A2952 RMK AO2
KOXV 131055Z AUTO 22011KT 10SM CLR 01/M05 A2951 RMK AO2
KOXV 131035Z AUTO 22013G18KT 10SM CLR 01/M05 A2952 RMK AO2
KOXV 131015Z AUTO 22014G19KT 10SM CLR 01/M05 A2954 RMK AO2
KOXV 130955Z AUTO 21017G23KT 10SM -UP CLR 01/M05 A2955 RMK AO2
KOXV 130935Z AUTO 21014G19KT 10SM CLR 01/M05 A2957 RMK AO2
KOXV 130915Z AUTO 21012G18KT 10SM FEW230 01/M05 A2959 RMK AO2
KOXV 130855Z AUTO 20011KT 10SM BKN230 M00/M05 A2962 RMK AO2
KOXV 130835Z AUTO 19013KT 10SM FEW230 M00/M05 A2963 RMK AO2
KOXV 130815Z AUTO 20011KT 10SM FEW230 M00/M05 A2966 RMK AO2
KOXV 130755Z AUTO 20013G20KT 10SM FEW230 00/M05 A2967 RMK AO2
KOXV 130735Z AUTO 20015G20KT 10SM CLR 00/M05 A2969 RMK AO2
KOXV 130715Z AUTO 20013KT 10SM CLR 00/M05 A2971 RMK AO2
KOXV 130655Z AUTO 20012G19KT 10SM CLR M00/M06 A2972 RMK AO2
KOXV 130635Z AUTO 20011KT 10SM CLR M00/M06 A2975 RMK AO2
KOXV 130615Z AUTO 20011G16KT 10SM CLR M01/M06 A2977 RMK AO2
KOXV 130555Z AUTO 20012KT 10SM CLR M01/M06 A2979 RMK AO2
KOXV 130535Z AUTO 20011KT 10SM CLR M01/M07 A2981 RMK AO2
KOXV 130515Z AUTO 20009G15KT 10SM CLR M02/M07 A2982 RMK AO2
KOXV 130455Z AUTO 19010KT 10SM SCT070 M02/M07 A2983 RMK AO2
KOXV 130435Z AUTO 19009KT 10SM OVC070 M02/M07 A2986 RMK AO2
KOXV 130415Z AUTO 20007KT 10SM OVC070 M02/M08 A2988 RMK AO2
KOXV 130355Z AUTO 19008KT 10SM SCT070 M02/M08 A2989 RMK AO2
KOXV 130335Z AUTO 20009KT 10SM CLR M02/M08 A2991 RMK AO2
KOXV 130315Z AUTO 20008KT 10SM FEW080 M02/M08 A2992 RMK AO2
KOXV 130255Z AUTO 21010KT 10SM CLR M02/M08 A2993 RMK AO2
KOXV 130235Z AUTO 21009KT 10SM CLR M02/M08 A2994 RMK AO2
KOXV 130215Z AUTO 21009KT 10SM CLR M03/M09 A2996 RMK AO2
KOXV 130155Z AUTO 21007KT 10SM FEW170 M03/M10 A2998 RMK AO2
KOXV 130135Z AUTO 10SM BKN170 M03/M10 A2998 RMK AO2
KOXV 130115Z AUTO 21007KT 10SM CLR M03/M11 A2999 RMK AO2
KOXV 130055Z AUTO 21007KT 10SM CLR M03/M11 A2999 RMK AO2
KOXV 130035Z AUTO 21006KT 10SM CLR M03/M11 A3001 RMK AO2
KOXV 130015Z AUTO 21006KT 10SM CLR M02/M12 A3001 RMK AO2
KOXV 122355Z AUTO 21007KT 10SM CLR M02/M12 A3001 RMK AO2
KOXV 122335Z AUTO 22007KT 10SM CLR M02/M13 A3002 RMK AO2
KOXV 122315Z AUTO 21006KT 10SM CLR M02/M13 A3003 RMK AO2
KOXV 122255Z AUTO 23005KT 10SM CLR M02/M13 A3005 RMK AO2
KOXV 122235Z AUTO 25008KT 10SM CLR M01/M13 A3006 RMK AO2
KOXV 122215Z AUTO 26009KT 10SM FEW100 M00/M14 A3007 RMK AO2
KOXV 122155Z AUTO 27010KT 10SM FEW110 M00/M15 A3008 RMK AO2
KOXV 122135Z AUTO 27008KT 10SM BKN100 M01/M15 A3009 RMK AO2
KOXV 122115Z AUTO 27011KT 10SM SCT100 M00/M15 A3009 RMK AO2
KOXV 122055Z AUTO 25010KT 10SM CLR M00/M15 A3010 RMK AO2
KOXV 122035Z AUTO 27010KT 10SM CLR M01/M16 A3011 RMK AO2
KOXV 122015Z AUTO 29010KT 10SM CLR M01/M16 A3012 RMK AO2
KOXV 121955Z AUTO 27010G16KT 10SM CLR M01/M17 A3013 RMK AO2
KOXV 121935Z AUTO 27009KT 10SM CLR M02/M17 A3015 RMK AO2
KOXV 121915Z AUTO 27009KT 10SM CLR M02/M18 A3015 RMK AO2
KOXV 121855Z AUTO 29011KT 10SM CLR M02/M17 A3017 RMK AO2
KOXV 121835Z AUTO 27011KT 10SM CLR M03/M18 A3018 RMK AO2
KOXV 121815Z AUTO 27011KT 10SM CLR M03/M17 A3019 RMK AO2
KOXV 121755Z AUTO 28008G13KT 10SM CLR M04/M16 A3020 RMK AO2
KOXV 121735Z AUTO 31008KT 10SM CLR M04/M15 A3023 RMK AO2
KOXV 121715Z AUTO 28008KT 10SM CLR M05/M15 A3025 RMK AO2
KOXV 121655Z AUTO 32007G13KT 10SM CLR M05/M15 A3026 RMK AO2
KOXV 121635Z AUTO 31010KT 10SM CLR M06/M15 A3026 RMK AO2
KOXV 121615Z AUTO 29010KT 10SM CLR M06/M14 A3027 RMK AO2
KOXV 121555Z AUTO 31010KT 10SM CLR M07/M14 A3027 RMK AO2
KOXV 121535Z AUTO 30010KT 10SM CLR M07/M14 A3027 RMK AO2
KOXV 121515Z AUTO 31013G18KT 10SM CLR M08/M13 A3026 RMK AO2
KOXV 121455Z AUTO 31012KT 10SM CLR M08/M13 A3026 RMK AO2
KOXV 121435Z AUTO 29010KT 10SM CLR M09/M14 A3026 RMK AO2
KOXV 121415Z AUTO 30010KT 10SM CLR M10/M14 A3026 RMK AO2